Indian Head, Canada
Current Conditions -  °F | °C
As of 10:00 PM on Thursday 27 Nov 2014 (Local Time) from CYQR Reporting Station
Light Snow Light Snow  
Wind Chill:   Ceiling: 4200
Heat Index: 16°   Visibility: 8mi
Dew Point: 12°   Wind: 13mph
Humidity: 86%   Direction: 100°E
Pressure: 29.89"   Gusts: NA
Location:  50.53°N, 103.67°W
Report Text: CYQR 280400Z 10011KT 8SM -SN DRSN OVC042 M09/M11 A2989 RMK SC8 SLP165
Loading
Personal Weather Stations






























Interactive Weather Map New forecast layout! Learn more

10-Day Weather Forecast

Advertisements
Track Severe Weather on mobile